Cape Cod — WBK3243 — position and weather

sailwx.info

Track history (hours):
 
Tides and Currents Weather Stations Pressure Air Temp Water Temp Dewpoint Dewpoint Depression Visibility Wind Speed Wind Dir Waves Ship Positions

Cape Cod

Owner: MORAN TOWING CORPORATION, New Canaan, CT. More information available from US FCC via Universal Licensing System and Coast Guard Vessel Documentation Center.

Last reported at 2018-Jun-19 04:31 UTC. Time now 2018-Jun-19 04:35 UTC.
Position N 39°53' W 075°11'.

Length 33 m; draft 4.8 m.

Type: Tug. MMSI: 366939770.

Date/timePositionNaut miles runAvg speedWind from/ knotsBaromVisibWave heightAir tempDewpointWater temp
2018-Jun-19 04:31N 39°53' W 075°11'2 3.9
2018-Jun-19 04:00N 39°54' W 075°08'1 2.7
2018-Jun-19 03:31N 39°55' W 075°08'1 2.0
2018-Jun-19 03:00N 39°54' W 075°08'2 4.4
2018-Jun-19 02:31N 39°53' W 075°11'0 0.0
2018-Jun-19 02:00N 39°53' W 075°11'0 0.0
2018-Jun-19 01:30N 39°53' W 075°11'0 0.0
2018-Jun-19 01:00N 39°53' W 075°11'0 0.0
2018-Jun-19 00:31N 39°53' W 075°11'0 0.0
2018-Jun-19 00:01N 39°53' W 075°11'0 0.0
2018-Jun-18 23:31N 39°53' W 075°11'0 0.0
2018-Jun-18 23:01N 39°53' W 075°11'0 0.0
2018-Jun-18 22:30N 39°53' W 075°11'0 0.0
2018-Jun-18 22:00N 39°53' W 075°11'0 0.0
2018-Jun-18 21:30N 39°53' W 075°11'0 0.0
2018-Jun-18 21:00N 39°53' W 075°11'0 0.0
2018-Jun-18 20:30N 39°53' W 075°11'0 0.0
2018-Jun-18 20:00N 39°53' W 075°11'0 0.0
2018-Jun-18 19:29N 39°53' W 075°11'0 0.0
2018-Jun-18 19:00N 39°53' W 075°11'0 0.0
2018-Jun-18 18:30N 39°53' W 075°11'0 0.0
2018-Jun-18 18:00N 39°53' W 075°11'1 1.6
2018-Jun-18 17:31N 39°54' W 075°12'0 0.0
2018-Jun-18 17:01N 39°54' W 075°12'0 0.6
2018-Jun-18 16:30N 39°54' W 075°12'0 0.2
2018-Jun-18 16:00N 39°54' W 075°12'1 2.8
2018-Jun-18 15:30N 39°52' W 075°13'2 3.4
2018-Jun-18 15:00N 39°53' W 075°11'0 0.1
2018-Jun-18 14:31N 39°53' W 075°11'0 0.0
2018-Jun-18 14:00N 39°53' W 075°11'0 0.0
2018-Jun-18 13:30N 39°53' W 075°11'0 0.0
2018-Jun-18 13:00N 39°53' W 075°11'0 0.0
2018-Jun-18 12:30N 39°53' W 075°11'0 0.0
2018-Jun-18 12:00N 39°53' W 075°11'0 0.0
2018-Jun-18 11:30N 39°53' W 075°11'0 0.0
2018-Jun-18 11:00N 39°53' W 075°11'0 0.0
2018-Jun-18 10:30N 39°53' W 075°11'0 0.0
2018-Jun-18 10:01N 39°53' W 075°11'0 0.0
2018-Jun-18 09:30N 39°53' W 075°11'0 0.0
2018-Jun-18 09:01N 39°53' W 075°11'0 0.0
2018-Jun-18 08:31N 39°53' W 075°11'0 0.0
2018-Jun-18 08:00N 39°53' W 075°11'0 0.0
2018-Jun-18 07:30N 39°53' W 075°11'3 6.6
2018-Jun-18 07:00N 39°51' W 075°14'611.3
2018-Jun-18 06:30N 39°50' W 075°21'711.7
2018-Jun-18 05:56N 39°46' W 075°28'511.2
2018-Jun-18 05:30N 39°42' W 075°31'510.9
2018-Jun-18 05:00N 39°37' W 075°35'2 4.8
2018-Jun-18 04:30N 39°35' W 075°35'1 1.5
2018-Jun-18 03:59N 39°35' W 075°36'1 2.6
2018-Jun-18 03:30N 39°35' W 075°34'3 4.8
2018-Jun-18 02:58N 39°37' W 075°35'510.2
2018-Jun-18 02:30N 39°41' W 075°31'610.9
2018-Jun-18 01:59N 39°46' W 075°28'510.5
2018-Jun-18 01:30N 39°49' W 075°23'510.4
2018-Jun-18 01:01N 39°51' W 075°17'510.0
2018-Jun-18 00:30N 39°53' W 075°11'0 0.8
2018-Jun-18 00:00N 39°53' W 075°11'0 0.0
2018-Jun-17 23:30N 39°53' W 075°11'0 0.0
2018-Jun-17 23:01N 39°53' W 075°11'0 0.0
2018-Jun-17 22:30N 39°53' W 075°11'0 0.0
2018-Jun-17 22:01N 39°53' W 075°11'0 0.0
2018-Jun-17 21:30N 39°53' W 075°11'0 0.0
2018-Jun-17 21:00N 39°53' W 075°11'0 0.0
2018-Jun-17 20:31N 39°53' W 075°11'0 0.0
2018-Jun-17 20:01N 39°53' W 075°11'0 0.0
2018-Jun-17 19:31N 39°53' W 075°11'0 0.0
2018-Jun-17 19:00N 39°53' W 075°11'0 0.0
2018-Jun-17 18:30N 39°53' W 075°11'0 0.0
2018-Jun-17 18:00N 39°53' W 075°11'0 0.0
2018-Jun-17 17:30N 39°53' W 075°11'0 0.0
2018-Jun-17 17:00N 39°53' W 075°11'0 0.0
2018-Jun-17 16:31N 39°53' W 075°11'0 0.0
2018-Jun-17 16:01N 39°53' W 075°11'0 0.0
2018-Jun-17 15:30N 39°53' W 075°11'0 0.0
2018-Jun-17 15:00N 39°53' W 075°11'0 0.0
2018-Jun-17 14:31N 39°53' W 075°11'0 0.0
2018-Jun-17 14:00N 39°53' W 075°11'0 0.0
2018-Jun-17 13:30N 39°53' W 075°11'0 0.0
2018-Jun-17 13:01N 39°53' W 075°11'0 0.0
2018-Jun-17 12:30N 39°53' W 075°11'0 0.0
2018-Jun-17 12:00N 39°53' W 075°11'0 0.0
2018-Jun-17 11:30N 39°53' W 075°11'0 0.0
2018-Jun-17 11:00N 39°53' W 075°11'0 0.0
2018-Jun-17 10:31N 39°53' W 075°11'0 0.0
2018-Jun-17 10:00N 39°53' W 075°11'0 0.0
2018-Jun-17 09:30N 39°53' W 075°11'0 0.0
2018-Jun-17 09:00N 39°53' W 075°11'0 0.0
2018-Jun-17 08:30N 39°53' W 075°11'0 0.0
2018-Jun-17 08:00N 39°53' W 075°11'0 0.0
2018-Jun-17 07:30N 39°53' W 075°11'0 0.0
2018-Jun-17 07:00N 39°53' W 075°11'0 0.0
2018-Jun-17 06:30N 39°53' W 075°11'0 0.0
2018-Jun-17 06:00N 39°53' W 075°11'0 0.0
2018-Jun-17 05:31N 39°53' W 075°11'0 0.0
2018-Jun-17 05:00N 39°53' W 075°11'0 0.0
2018-Jun-17 04:31N 39°53' W 075°11'0 0.0
2018-Jun-17 04:00N 39°53' W 075°11'0 0.0
2018-Jun-17 03:30N 39°53' W 075°11'0 0.0
2018-Jun-17 03:00N 39°53' W 075°11'0 0.0
2018-Jun-17 02:30N 39°53' W 075°11'0 0.0
2018-Jun-17 02:00N 39°53' W 075°11'0 0.0
2018-Jun-17 01:30N 39°53' W 075°11'0 0.0
2018-Jun-17 00:59N 39°53' W 075°11'0 0.0
2018-Jun-17 00:31N 39°53' W 075°11'0 0.0
2018-Jun-17 00:00N 39°53' W 075°11'0 0.0
2018-Jun-16 23:31N 39°53' W 075°11'0 0.0
2018-Jun-16 23:01N 39°53' W 075°11'0 0.0
2018-Jun-16 22:31N 39°53' W 075°11'0 0.0
2018-Jun-16 22:01N 39°53' W 075°11'0 0.0
2018-Jun-16 21:30N 39°53' W 075°11'0 0.0
2018-Jun-16 21:00N 39°53' W 075°11'0 0.0
2018-Jun-16 20:30N 39°53' W 075°11'0 0.0
2018-Jun-16 20:01N 39°53' W 075°11'0 0.0
2018-Jun-16 19:30N 39°53' W 075°11'0 0.0
2018-Jun-16 19:00N 39°53' W 075°11'0 0.0
2018-Jun-16 18:30N 39°53' W 075°11'0 0.0
2018-Jun-16 18:00N 39°53' W 075°11'0 0.0
2018-Jun-16 17:31N 39°53' W 075°11'0 0.0
2018-Jun-16 17:00N 39°53' W 075°11'0 0.0
2018-Jun-16 16:30N 39°53' W 075°11'0 0.0
2018-Jun-16 16:01N 39°53' W 075°11'0 0.0
2018-Jun-16 15:31N 39°53' W 075°11'0 0.0
2018-Jun-16 15:01N 39°53' W 075°11'0 0.0
2018-Jun-16 14:30N 39°53' W 075°11'0 0.0
2018-Jun-16 14:01N 39°53' W 075°11'0 0.0
2018-Jun-16 13:30N 39°53' W 075°11'0 0.0
2018-Jun-16 13:00N 39°53' W 075°11'0 0.0
2018-Jun-16 12:30N 39°53' W 075°11'0 0.0
2018-Jun-16 12:00N 39°53' W 075°11'0 0.0
2018-Jun-16 11:30N 39°53' W 075°11'0 0.0
2018-Jun-16 11:00N 39°53' W 075°11'0 0.0
2018-Jun-16 10:30N 39°53' W 075°11'0 0.0
2018-Jun-16 10:00N 39°53' W 075°11'0 0.0
2018-Jun-16 09:30N 39°53' W 075°11'0 0.0
2018-Jun-16 09:00N 39°53' W 075°11'0 0.0
2018-Jun-16 08:30N 39°53' W 075°11'0 0.0
2018-Jun-16 08:00N 39°53' W 075°11'0 0.0
2018-Jun-16 07:30N 39°53' W 075°11'0 0.0
2018-Jun-16 07:00N 39°53' W 075°11'0 0.0
2018-Jun-16 06:30N 39°53' W 075°11'0 0.0
2018-Jun-16 06:00N 39°53' W 075°11'0 0.0
2018-Jun-16 05:30N 39°53' W 075°11'0 0.0
2018-Jun-16 05:00N 39°53' W 075°11'0 0.0
2018-Jun-16 04:31N 39°53' W 075°11'0 0.0
2018-Jun-16 04:01N 39°53' W 075°11'0 0.0
2018-Jun-16 03:30N 39°53' W 075°11'2 4.5
2018-Jun-16 03:00N 39°52' W 075°13'511.0
2018-Jun-16 02:30N 39°51' W 075°20'811.3
2018-Jun-16 01:49N 39°46' W 075°28'411.9
2018-Jun-16 01:30N 39°43' W 075°30'611.1
2018-Jun-16 01:00N 39°38' W 075°34'510.7
2018-Jun-16 00:29N 39°33' W 075°32'510.9
2018-Jun-16 00:00N 39°28' W 075°34'711.4
2018-Jun-15 23:23N 39°22' W 075°28'2 3.6
2018-Jun-15 22:56N 39°23' W 075°29'512.3
2018-Jun-15 22:30N 39°28' W 075°34'612.3
2018-Jun-15 22:00N 39°34' W 075°33'610.9
2018-Jun-15 21:30N 39°39' W 075°33'611.8
2018-Jun-15 21:00N 39°45' W 075°30'510.7
2018-Jun-15 20:30N 39°48' W 075°25'6 9.8
2018-Jun-15 19:56N 39°51' W 075°18'4 9.0
2018-Jun-15 19:31N 39°52' W 075°13'4 8.5
2018-Jun-15 19:01N 39°53' W 075°08'4 8.2
2018-Jun-15 18:30N 39°57' W 075°08'2 3.0
2018-Jun-15 18:00N 39°58' W 075°06'0 0.6
2018-Jun-15 17:31N 39°58' W 075°07'2 4.6
2018-Jun-15 17:01N 39°56' W 075°08'3 6.8
2018-Jun-15 16:30N 39°53' W 075°11'0 0.0
2018-Jun-15 16:01N 39°53' W 075°11'0 0.0
2018-Jun-15 15:30N 39°53' W 075°11'0 0.0
2018-Jun-15 15:01N 39°53' W 075°11'0 0.0
2018-Jun-15 14:31N 39°53' W 075°11'0 0.0
2018-Jun-15 14:00N 39°53' W 075°11'0 0.0
2018-Jun-15 13:31N 39°53' W 075°11'0 0.0
2018-Jun-15 13:00N 39°53' W 075°11'0 0.0
2018-Jun-15 12:30N 39°53' W 075°11'0 0.0
2018-Jun-15 12:00N 39°53' W 075°11'0 0.0
2018-Jun-15 11:30N 39°53' W 075°11'0 0.0
2018-Jun-15 11:00N 39°53' W 075°11'0 0.0
2018-Jun-15 10:30N 39°53' W 075°11'0 0.0
2018-Jun-15 10:00N 39°53' W 075°11'0 0.0
2018-Jun-15 09:30N 39°53' W 075°11'0 0.0
2018-Jun-15 09:00N 39°53' W 075°11'0 0.0
2018-Jun-15 08:30N 39°53' W 075°11'0 0.0
2018-Jun-15 08:00N 39°53' W 075°11'0 0.0
2018-Jun-15 07:30N 39°53' W 075°11'0 0.0
2018-Jun-15 07:00N 39°53' W 075°11'0 0.0
2018-Jun-15 06:30N 39°53' W 075°11'0 0.0
2018-Jun-15 06:00N 39°53' W 075°11'0 0.0
2018-Jun-15 05:30N 39°53' W 075°11'0 0.0
2018-Jun-15 05:00N 39°53' W 075°11'0 0.0
2018-Jun-15 04:30N 39°53' W 075°11'0 0.0
2018-Jun-15 04:00N 39°53' W 075°11'0 0.0
2018-Jun-15 03:30N 39°53' W 075°11'0 0.0
2018-Jun-15 03:00N 39°53' W 075°11'0 0.5
2018-Jun-15 02:30N 39°53' W 075°10'4 7.4
2018-Jun-15 02:01N 39°56' W 075°08'2 4.4
2018-Jun-15 01:30N 39°58' W 075°07'0 0.0
2018-Jun-15 01:00N 39°58' W 075°07'0 0.0
2018-Jun-15 00:30N 39°58' W 075°07'0 0.0
2018-Jun-15 00:00N 39°58' W 075°07'1 2.5
2018-Jun-14 23:30N 39°59' W 075°05'2 3.6
2018-Jun-14 23:00N 39°60' W 075°04'2 3.7
2018-Jun-14 22:30N 39°59' W 075°05'3 6.2
2018-Jun-14 22:00N 39°57' W 075°08'3 6.7
2018-Jun-14 21:30N 39°53' W 075°08'2 3.4
2018-Jun-14 21:00N 39°53' W 075°11'0 0.0
2018-Jun-14 20:30N 39°53' W 075°11'0 0.0
2018-Jun-14 20:00N 39°53' W 075°11'0 0.0
2018-Jun-14 19:30N 39°53' W 075°11'0 0.0
2018-Jun-14 19:00N 39°53' W 075°11'0 0.0
2018-Jun-14 18:30N 39°53' W 075°11'0 0.0
2018-Jun-14 18:00N 39°53' W 075°11'0 0.0
2018-Jun-14 17:30N 39°53' W 075°11'0 0.0
2018-Jun-14 17:00N 39°53' W 075°11'0 0.0
2018-Jun-14 16:30N 39°53' W 075°11'0 0.0
2018-Jun-14 16:00N 39°53' W 075°11'0 0.0
2018-Jun-14 15:31N 39°53' W 075°11'0 0.0
2018-Jun-14 15:01N 39°53' W 075°11'0 0.0
2018-Jun-14 14:31N 39°53' W 075°11'0 0.0
2018-Jun-14 14:01N 39°53' W 075°11'0 0.0
2018-Jun-14 13:30N 39°53' W 075°11'0 0.0
2018-Jun-14 13:00N 39°53' W 075°11'0 0.0
2018-Jun-14 12:30N 39°53' W 075°11'0 0.0
2018-Jun-14 12:00N 39°53' W 075°11'0 0.0
2018-Jun-14 11:30N 39°53' W 075°11'0 0.0
2018-Jun-14 11:00N 39°53' W 075°11'0 0.0
2018-Jun-14 10:30N 39°53' W 075°11'0 0.0
2018-Jun-14 10:00N 39°53' W 075°11'0 0.0
2018-Jun-14 09:30N 39°53' W 075°11'0 0.0
2018-Jun-14 09:00N 39°53' W 075°11'0 0.0
2018-Jun-14 08:30N 39°53' W 075°11'1 1.5
2018-Jun-14 08:00N 39°53' W 075°10'4 8.9
2018-Jun-14 07:30N 39°57' W 075°08'2 4.3
2018-Jun-14 07:00N 39°59' W 075°06'0 0.4
2018-Jun-14 06:30N 39°59' W 075°06'0 0.0
2018-Jun-14 06:00N 39°59' W 075°06'3 6.2
2018-Jun-14 05:30N 39°56' W 075°08'4 8.0
2018-Jun-14 05:00N 39°53' W 075°11'5 9.9
2018-Jun-14 04:30N 39°51' W 075°17'611.2
2018-Jun-14 04:00N 39°49' W 075°24'612.6
2018-Jun-14 03:30N 39°44' W 075°30'715.0
2018-Jun-14 03:00N 39°38' W 075°34'713.1
2018-Jun-14 02:30N 39°31' W 075°33'612.0
2018-Jun-14 02:00N 39°25' W 075°31'713.3
2018-Jun-14 01:30N 39°21' W 075°26'714.4
2018-Jun-14 01:00N 39°15' W 075°20'9 4.6
2018-Jun-13 23:10N 39°08' W 075°13'1 6.2
2018-Jun-13 22:59N 39°09' W 075°14'3 6.4
2018-Jun-13 22:30N 39°11' W 075°17'4 7.5
2018-Jun-13 22:00N 39°15' W 075°19'4 8.6
2018-Jun-13 21:30N 39°18' W 075°23'510.1
2018-Jun-13 21:00N 39°22' W 075°27'510.6
2018-Jun-13 20:30N 39°26' W 075°32'5 9.3
2018-Jun-13 20:00N 39°30' W 075°33'5 9.5
2018-Jun-13 19:30N 39°35' W 075°33'4 8.3
2018-Jun-13 19:00N 39°39' W 075°33'4 8.7
2018-Jun-13 18:30N 39°43' W 075°31'4 7.8
2018-Jun-13 18:00N 39°46' W 075°28'4 6.8
2018-Jun-13 17:29N 39°48' W 075°25'3 5.8
2018-Jun-13 17:00N 39°50' W 075°22'3 5.1
2018-Jun-13 16:30N 39°51' W 075°19'2 4.6
2018-Jun-13 16:00N 39°51' W 075°16'2 3.7
2018-Jun-13 15:30N 39°52' W 075°14'0 0.5
2018-Jun-13 15:00N 39°52' W 075°13'1 2.6
2018-Jun-13 14:30N 39°53' W 075°12'1 2.2
2018-Jun-13 14:00N 39°54' W 075°11'0 0.5
2018-Jun-13 13:30N 39°54' W 075°12'1 1.7
2018-Jun-13 13:01N 39°53' W 075°11'0 0.0
2018-Jun-13 12:30N 39°53' W 075°11'0 0.0
2018-Jun-13 12:00N 39°53' W 075°11'0 0.0
2018-Jun-13 11:30N 39°53' W 075°11'0 0.0
2018-Jun-13 11:00N 39°53' W 075°11'0 0.0
2018-Jun-13 10:30N 39°53' W 075°11'0 0.0
2018-Jun-13 10:01N 39°53' W 075°11'0 0.0
2018-Jun-13 09:30N 39°53' W 075°11'0 0.0
2018-Jun-13 09:00N 39°53' W 075°11'0 0.0
2018-Jun-13 08:30N 39°53' W 075°11'0 0.0
2018-Jun-13 08:01N 39°53' W 075°11'0 0.0
2018-Jun-13 07:31N 39°53' W 075°11'0 0.0
2018-Jun-13 07:00N 39°53' W 075°11'0 0.0
2018-Jun-13 06:30N 39°53' W 075°11'0 0.0
2018-Jun-13 06:00N 39°53' W 075°11'0 0.0
2018-Jun-13 05:30N 39°53' W 075°11'0 0.0
2018-Jun-13 05:01N 39°53' W 075°11'0 0.0
2018-Jun-13 04:30N 39°53' W 075°11'0 0.0
2018-Jun-13 04:01N 39°53' W 075°11'0 0.0
2018-Jun-13 03:30N 39°53' W 075°11'0 0.0
2018-Jun-13 03:00N 39°53' W 075°11'0 0.0
2018-Jun-13 02:30N 39°53' W 075°11'0 0.0
2018-Jun-13 02:00N 39°53' W 075°11'0 0.0
2018-Jun-13 01:30N 39°53' W 075°11'0 0.0
2018-Jun-13 01:00N 39°53' W 075°11'0 0.0
2018-Jun-13 00:31N 39°53' W 075°11'0 0.0
2018-Jun-13 00:01N 39°53' W 075°11'0 0.0
2018-Jun-12 23:30N 39°53' W 075°11'0 0.0
2018-Jun-12 23:00N 39°53' W 075°11'3 5.4
2018-Jun-12 22:30N 39°55' W 075°08'3 6.5
2018-Jun-12 22:00N 39°58' W 075°07'1 1.8
2018-Jun-12 21:30N 39°58' W 075°08'3 6.6
2018-Jun-12 21:00N 39°54' W 075°08'3 6.9
2018-Jun-12 20:30N 39°53' W 075°12'4 8.3
2018-Jun-12 20:01N 39°51' W 075°17'4 8.2
2018-Jun-12 19:31N 39°50' W 075°22'4 8.6
2018-Jun-12 19:01N 39°48' W 075°26'4 8.8
2018-Jun-12 18:31N 39°44' W 075°30'4 9.0
2018-Jun-12 18:01N 39°40' W 075°32'4 8.3
2018-Jun-12 17:31N 39°36' W 075°34'5 9.1
2018-Jun-12 17:01N 39°32' W 075°33'5 9.4
2018-Jun-12 16:30N 39°27' W 075°33'5 9.6
2018-Jun-12 16:00N 39°24' W 075°29'18 6.4
2018-Jun-12 13:09N 39°09' W 075°15'211.6
2018-Jun-12 13:00N 39°11' W 075°16'611.7
2018-Jun-12 12:30N 39°16' W 075°20'611.5
2018-Jun-12 12:00N 39°20' W 075°25'611.5
2018-Jun-12 11:30N 39°24' W 075°30'611.7
2018-Jun-12 11:01N 39°29' W 075°34'612.7
2018-Jun-12 10:30N 39°35' W 075°34'712.9
2018-Jun-12 10:00N 39°42' W 075°31'714.0
2018-Jun-12 09:30N 39°48' W 075°27'613.0
2018-Jun-12 09:00N 39°51' W 075°19'612.8
2018-Jun-12 08:31N 39°53' W 075°11'1 1.5
2018-Jun-12 08:01N 39°53' W 075°11'0 0.0
2018-Jun-12 07:30N 39°53' W 075°11'0 0.0
2018-Jun-12 07:01N 39°53' W 075°11'0 0.0
2018-Jun-12 06:31N 39°53' W 075°11'3 5.3
2018-Jun-12 06:00N 39°55' W 075°08'4 7.9
2018-Jun-12 05:30N 39°58' W 075°06'0 0.4
2018-Jun-12 05:01N 39°59' W 075°06'1 1.7
2018-Jun-12 04:31N 39°58' W 075°07'5 9.6
2018-Jun-12 04:00N 39°53' W 075°08'5 9.2
2018-Jun-12 03:30N 39°52' W 075°14'0 0.4
2018-Jun-12 03:00N 39°52' W 075°14'0 0.1
2018-Jun-12 02:30N 39°52' W 075°14'2 4.4
2018-Jun-12 02:00N 39°53' W 075°11'1 1.3
2018-Jun-12 01:30N 39°53' W 075°11'0 0.0
2018-Jun-12 01:00N 39°53' W 075°11'0 0.0
2018-Jun-12 00:31N 39°53' W 075°11'0 0.0
2018-Jun-12 00:00N 39°53' W 075°11'0 0.0
2018-Jun-11 23:30N 39°53' W 075°11'0 0.0
2018-Jun-11 23:01N 39°53' W 075°11'0 0.0
2018-Jun-11 22:30N 39°53' W 075°11'0 0.0
2018-Jun-11 22:00N 39°53' W 075°11'0 0.0
2018-Jun-11 21:30N 39°53' W 075°11'0 0.0
2018-Jun-11 21:00N 39°53' W 075°11'0 0.0
2018-Jun-11 20:31N 39°53' W 075°11'0 0.0
2018-Jun-11 20:00N 39°53' W 075°11'0 0.0
2018-Jun-11 19:31N 39°53' W 075°11'0 0.0
2018-Jun-11 19:00N 39°53' W 075°11'0 0.0
2018-Jun-11 18:30N 39°53' W 075°11'0 0.0
2018-Jun-11 18:00N 39°53' W 075°11'0 0.0
2018-Jun-11 17:30N 39°53' W 075°11'0 0.0
2018-Jun-11 17:01N 39°53' W 075°11'0 0.0
2018-Jun-11 16:30N 39°53' W 075°11'0 0.0
2018-Jun-11 16:00N 39°53' W 075°11'0 0.0
2018-Jun-11 15:30N 39°53' W 075°11'0 0.0
2018-Jun-11 15:00N 39°53' W 075°11'0 0.0
2018-Jun-11 14:31N 39°53' W 075°11'0 0.0
2018-Jun-11 14:00N 39°53' W 075°11'0 0.0
2018-Jun-11 13:30N 39°53' W 075°11'0 0.0
2018-Jun-11 13:00N 39°53' W 075°11'1 1.6
2018-Jun-11 12:30N 39°54' W 075°12'1 1.6
2018-Jun-11 11:59N 39°53' W 075°11'0 0.0
2018-Jun-11 11:30N 39°53' W 075°11'0 0.0
2018-Jun-11 11:00N 39°53' W 075°11'0 0.0
2018-Jun-11 10:30N 39°53' W 075°11'0 0.0
2018-Jun-11 10:01N 39°53' W 075°11'0 0.0
2018-Jun-11 09:30N 39°53' W 075°11'0 0.0
2018-Jun-11 09:01N 39°53' W 075°11'0 0.0
2018-Jun-11 08:30N 39°53' W 075°11'0 0.0
2018-Jun-11 08:01N 39°53' W 075°11'0 0.0
2018-Jun-11 07:30N 39°53' W 075°11'0 0.0
2018-Jun-11 07:01N 39°53' W 075°11'0 0.0
2018-Jun-11 06:30N 39°53' W 075°11'0 0.6
2018-Jun-11 06:00N 39°53' W 075°10'4 8.4
2018-Jun-11 05:31N 39°57' W 075°08'2 5.0
2018-Jun-11 05:00N 39°59' W 075°06'0 0.5
2018-Jun-11 04:30N 39°58' W 075°06'3 5.4
2018-Jun-11 04:01N 39°56' W 075°08'3 5.3
2018-Jun-11 03:31N 39°54' W 075°08'2 3.4
2018-Jun-11 02:56N 39°53' W 075°11'0 0.0
2018-Jun-11 02:27N 39°53' W 075°11'0 0.0
2018-Jun-11 01:55N 39°53' W 075°11'0 0.0
2018-Jun-11 01:20N 39°53' W 075°11'0 0.0
2018-Jun-11 00:59N 39°53' W 075°11'0 0.0
2018-Jun-11 00:25N 39°53' W 075°11'0 0.0
2018-Jun-10 23:55N 39°53' W 075°11'0 0.0
2018-Jun-10 23:25N 39°53' W 075°11'0 0.0
2018-Jun-10 22:53N 39°53' W 075°11'0 0.0
2018-Jun-10 22:27N 39°53' W 075°11'0 0.0
2018-Jun-10 21:50N 39°53' W 075°11'0 0.0
2018-Jun-10 21:30N 39°53' W 075°11'0 0.0
2018-Jun-10 20:51N 39°53' W 075°11'0 0.0
2018-Jun-10 20:26N 39°53' W 075°11'0 0.0
2018-Jun-10 19:59N 39°53' W 075°11'0 0.0
2018-Jun-10 19:25N 39°53' W 075°11'0 0.0
2018-Jun-10 18:58N 39°53' W 075°11'0 0.0
2018-Jun-10 18:24N 39°53' W 075°11'0 0.0
2018-Jun-10 17:58N 39°53' W 075°11'0 0.0
2018-Jun-10 17:28N 39°53' W 075°11'0 0.0
2018-Jun-10 16:56N 39°53' W 075°11'0 0.0
2018-Jun-10 16:23N 39°53' W 075°11'0 0.0
2018-Jun-10 15:54N 39°53' W 075°11'0 0.0
2018-Jun-10 15:28N 39°53' W 075°11'0 0.0
2018-Jun-10 14:56N 39°53' W 075°11'0 0.0
2018-Jun-10 14:28N 39°53' W 075°11'0 0.0
2018-Jun-10 13:29N 39°53' W 075°11'0 0.0
2018-Jun-10 12:56N 39°53' W 075°11'0 0.0
2018-Jun-10 12:30N 39°53' W 075°11'0 0.0
2018-Jun-10 11:53N 39°53' W 075°11'0 0.0
2018-Jun-10 11:26N 39°53' W 075°11'0 0.0
2018-Jun-10 10:59N 39°53' W 075°11'0 0.0
2018-Jun-10 10:20N 39°53' W 075°11'0 0.0
2018-Jun-10 09:56N 39°53' W 075°11'0 0.0
2018-Jun-10 09:25N 39°53' W 075°11'0 0.0
2018-Jun-10 08:53N 39°53' W 075°11'0 0.0
2018-Jun-10 08:29N 39°53' W 075°11'0 0.0
2018-Jun-10 07:58N 39°53' W 075°11'0 0.0
2018-Jun-10 07:25N 39°53' W 075°11'0 0.0
2018-Jun-10 06:52N 39°53' W 075°11'0 0.0
2018-Jun-10 06:26N 39°53' W 075°11'0 0.0
2018-Jun-10 05:50N 39°53' W 075°11'0 0.0
2018-Jun-10 05:27N 39°53' W 075°11'0 0.0
2018-Jun-10 04:52N 39°53' W 075°11'0 0.0
2018-Jun-10 04:30N 39°53' W 075°11'0 0.0
2018-Jun-10 03:56N 39°53' W 075°11'0 0.0
2018-Jun-10 03:24N 39°53' W 075°11'0 0.0
2018-Jun-10 03:00N 39°53' W 075°11'0 0.0
2018-Jun-10 02:22N 39°53' W 075°11'0 0.0
2018-Jun-10 01:53N 39°53' W 075°11'0 0.0
2018-Jun-10 01:28N 39°53' W 075°11'0 0.0
2018-Jun-10 00:58N 39°53' W 075°11'0 0.0
2018-Jun-10 00:25N 39°53' W 075°11'0 0.0
2018-Jun-10 00:00N 39°53' W 075°11'2 3.4
2018-Jun-09 23:28N 39°53' W 075°08'4 6.8
2018-Jun-09 22:52N 39°58' W 075°08'3 6.2
2018-Jun-09 22:24N 39°59' W 075°04'0 0.2
2018-Jun-09 22:00N 39°59' W 075°04'0 0.0
2018-Jun-09 21:25N 39°59' W 075°04'0 0.0
2018-Jun-09 21:00N 39°59' W 075°04'5 9.0
2018-Jun-09 20:27N 39°54' W 075°08'2 3.8
2018-Jun-09 19:48N 39°53' W 075°11'0 0.0
2018-Jun-09 19:24N 39°53' W 075°11'0 0.0
2018-Jun-09 18:50N 39°53' W 075°11'0 0.0
2018-Jun-09 18:27N 39°53' W 075°11'0 0.0
2018-Jun-09 17:58N 39°53' W 075°11'0 0.0
2018-Jun-09 17:26N 39°53' W 075°11'0 0.0
2018-Jun-09 16:50N 39°53' W 075°11'0 0.0
2018-Jun-09 16:26N 39°53' W 075°11'0 0.0
2018-Jun-09 15:57N 39°53' W 075°11'0 0.0
2018-Jun-09 14:55N 39°53' W 075°11'0 0.0
2018-Jun-09 14:28N 39°53' W 075°11'0 0.0
2018-Jun-09 13:57N 39°53' W 075°11'0 0.0
2018-Jun-09 13:30N 39°53' W 075°11'0 0.0
2018-Jun-09 12:53N 39°53' W 075°11'0 0.0
2018-Jun-09 12:23N 39°53' W 075°11'0 0.0
2018-Jun-09 11:59N 39°53' W 075°11'0 0.0
2018-Jun-09 11:29N 39°53' W 075°11'0 0.0
2018-Jun-09 11:00N 39°53' W 075°11'0 0.0
2018-Jun-09 10:29N 39°53' W 075°11'3 4.5
2018-Jun-09 09:54N 39°55' W 075°08'2 4.4
2018-Jun-09 09:27N 39°57' W 075°08'612.0
2018-Jun-09 08:57N 40°01' W 075°03'4 8.7
2018-Jun-09 08:30N 40°03' W 074°58'5 9.6
2018-Jun-09 07:59N 40°05' W 074°52'4 1.9
2018-Jun-09 06:00N 40°08' W 074°49'4 8.9
2018-Jun-09 05:30N 40°05' W 074°53'510.8
2018-Jun-09 05:00N 40°02' W 074°60'  
Track history (hours):
 
Tides and Currents Weather Stations Pressure Air Temp Water Temp Dewpoint Dewpoint Depression Visibility Wind Speed Wind Dir Waves Ship Positions

Cape Cod

Owner: MORAN TOWING CORPORATION, New Canaan, CT. More information available from US FCC via Universal Licensing System and Coast Guard Vessel Documentation Center.

Last reported at 2018-Jun-19 04:31 UTC. Time now 2018-Jun-19 04:35 UTC.
Position N 39°53' W 075°11'.

Length 33 m; draft 4.8 m.

Type: Tug. MMSI: 366939770.

Date/timePositionNaut miles runAvg speedWind from/ knotsBaromVisibWave heightAir tempDewpointWater temp
2018-Jun-19 04:31N 39°53' W 075°11'2 3.9
2018-Jun-19 04:00N 39°54' W 075°08'1 2.7
2018-Jun-19 03:31N 39°55' W 075°08'1 2.0
2018-Jun-19 03:00N 39°54' W 075°08'2 4.4
2018-Jun-19 02:31N 39°53' W 075°11'0 0.0
2018-Jun-19 02:00N 39°53' W 075°11'0 0.0
2018-Jun-19 01:30N 39°53' W 075°11'0 0.0
2018-Jun-19 01:00N 39°53' W 075°11'0 0.0
2018-Jun-19 00:31N 39°53' W 075°11'0 0.0
2018-Jun-19 00:01N 39°53' W 075°11'0 0.0
2018-Jun-18 23:31N 39°53' W 075°11'0 0.0
2018-Jun-18 23:01N 39°53' W 075°11'0 0.0
2018-Jun-18 22:30N 39°53' W 075°11'0 0.0
2018-Jun-18 22:00N 39°53' W 075°11'0 0.0
2018-Jun-18 21:30N 39°53' W 075°11'0 0.0
2018-Jun-18 21:00N 39°53' W 075°11'0 0.0
2018-Jun-18 20:30N 39°53' W 075°11'0 0.0
2018-Jun-18 20:00N 39°53' W 075°11'0 0.0
2018-Jun-18 19:29N 39°53' W 075°11'0 0.0
2018-Jun-18 19:00N 39°53' W 075°11'0 0.0
2018-Jun-18 18:30N 39°53' W 075°11'0 0.0
2018-Jun-18 18:00N 39°53' W 075°11'1 1.6
2018-Jun-18 17:31N 39°54' W 075°12'0 0.0
2018-Jun-18 17:01N 39°54' W 075°12'0 0.6
2018-Jun-18 16:30N 39°54' W 075°12'0 0.2
2018-Jun-18 16:00N 39°54' W 075°12'1 2.8
2018-Jun-18 15:30N 39°52' W 075°13'2 3.4
2018-Jun-18 15:00N 39°53' W 075°11'0 0.1
2018-Jun-18 14:31N 39°53' W 075°11'0 0.0
2018-Jun-18 14:00N 39°53' W 075°11'0 0.0
2018-Jun-18 13:30N 39°53' W 075°11'0 0.0
2018-Jun-18 13:00N 39°53' W 075°11'0 0.0
2018-Jun-18 12:30N 39°53' W 075°11'0 0.0
2018-Jun-18 12:00N 39°53' W 075°11'0 0.0
2018-Jun-18 11:30N 39°53' W 075°11'0 0.0
2018-Jun-18 11:00N 39°53' W 075°11'0 0.0
2018-Jun-18 10:30N 39°53' W 075°11'0 0.0
2018-Jun-18 10:01N 39°53' W 075°11'0 0.0
2018-Jun-18 09:30N 39°53' W 075°11'0 0.0
2018-Jun-18 09:01N 39°53' W 075°11'0 0.0
2018-Jun-18 08:31N 39°53' W 075°11'0 0.0
2018-Jun-18 08:00N 39°53' W 075°11'0 0.0
2018-Jun-18 07:30N 39°53' W 075°11'3 6.6
2018-Jun-18 07:00N 39°51' W 075°14'611.3
2018-Jun-18 06:30N 39°50' W 075°21'711.7
2018-Jun-18 05:56N 39°46' W 075°28'511.2
2018-Jun-18 05:30N 39°42' W 075°31'510.9
2018-Jun-18 05:00N 39°37' W 075°35'2 4.8
2018-Jun-18 04:30N 39°35' W 075°35'1 1.5
2018-Jun-18 03:59N 39°35' W 075°36'1 2.6
2018-Jun-18 03:30N 39°35' W 075°34'3 4.8
2018-Jun-18 02:58N 39°37' W 075°35'510.2
2018-Jun-18 02:30N 39°41' W 075°31'610.9
2018-Jun-18 01:59N 39°46' W 075°28'510.5
2018-Jun-18 01:30N 39°49' W 075°23'510.4
2018-Jun-18 01:01N 39°51' W 075°17'510.0
2018-Jun-18 00:30N 39°53' W 075°11'0 0.8
2018-Jun-18 00:00N 39°53' W 075°11'0 0.0
2018-Jun-17 23:30N 39°53' W 075°11'0 0.0
2018-Jun-17 23:01N 39°53' W 075°11'0 0.0
2018-Jun-17 22:30N 39°53' W 075°11'0 0.0
2018-Jun-17 22:01N 39°53' W 075°11'0 0.0
2018-Jun-17 21:30N 39°53' W 075°11'0 0.0
2018-Jun-17 21:00N 39°53' W 075°11'0 0.0
2018-Jun-17 20:31N 39°53' W 075°11'0 0.0
2018-Jun-17 20:01N 39°53' W 075°11'0 0.0
2018-Jun-17 19:31N 39°53' W 075°11'0 0.0
2018-Jun-17 19:00N 39°53' W 075°11'0 0.0
2018-Jun-17 18:30N 39°53' W 075°11'0 0.0
2018-Jun-17 18:00N 39°53' W 075°11'0 0.0
2018-Jun-17 17:30N 39°53' W 075°11'0 0.0
2018-Jun-17 17:00N 39°53' W 075°11'0 0.0
2018-Jun-17 16:31N 39°53' W 075°11'0 0.0
2018-Jun-17 16:01N 39°53' W 075°11'0 0.0
2018-Jun-17 15:30N 39°53' W 075°11'0 0.0
2018-Jun-17 15:00N 39°53' W 075°11'0 0.0
2018-Jun-17 14:31N 39°53' W 075°11'0 0.0
2018-Jun-17 14:00N 39°53' W 075°11'0 0.0
2018-Jun-17 13:30N 39°53' W 075°11'0 0.0
2018-Jun-17 13:01N 39°53' W 075°11'0 0.0
2018-Jun-17 12:30N 39°53' W 075°11'0 0.0
2018-Jun-17 12:00N 39°53' W 075°11'0 0.0
2018-Jun-17 11:30N 39°53' W 075°11'0 0.0
2018-Jun-17 11:00N 39°53' W 075°11'0 0.0
2018-Jun-17 10:31N 39°53' W 075°11'0 0.0
2018-Jun-17 10:00N 39°53' W 075°11'0 0.0
2018-Jun-17 09:30N 39°53' W 075°11'0 0.0
2018-Jun-17 09:00N 39°53' W 075°11'0 0.0
2018-Jun-17 08:30N 39°53' W 075°11'0 0.0
2018-Jun-17 08:00N 39°53' W 075°11'0 0.0
2018-Jun-17 07:30N 39°53' W 075°11'0 0.0
2018-Jun-17 07:00N 39°53' W 075°11'0 0.0
2018-Jun-17 06:30N 39°53' W 075°11'0 0.0
2018-Jun-17 06:00N 39°53' W 075°11'0 0.0
2018-Jun-17 05:31N 39°53' W 075°11'0 0.0
2018-Jun-17 05:00N 39°53' W 075°11'0 0.0
2018-Jun-17 04:31N 39°53' W 075°11'0 0.0
2018-Jun-17 04:00N 39°53' W 075°11'0 0.0
2018-Jun-17 03:30N 39°53' W 075°11'0 0.0
2018-Jun-17 03:00N 39°53' W 075°11'0 0.0
2018-Jun-17 02:30N 39°53' W 075°11'0 0.0
2018-Jun-17 02:00N 39°53' W 075°11'0 0.0
2018-Jun-17 01:30N 39°53' W 075°11'0 0.0
2018-Jun-17 00:59N 39°53' W 075°11'0 0.0
2018-Jun-17 00:31N 39°53' W 075°11'0 0.0
2018-Jun-17 00:00N 39°53' W 075°11'0 0.0
2018-Jun-16 23:31N 39°53' W 075°11'0 0.0
2018-Jun-16 23:01N 39°53' W 075°11'0 0.0
2018-Jun-16 22:31N 39°53' W 075°11'0 0.0
2018-Jun-16 22:01N 39°53' W 075°11'0 0.0
2018-Jun-16 21:30N 39°53' W 075°11'0 0.0
2018-Jun-16 21:00N 39°53' W 075°11'0 0.0
2018-Jun-16 20:30N 39°53' W 075°11'0 0.0
2018-Jun-16 20:01N 39°53' W 075°11'0 0.0
2018-Jun-16 19:30N 39°53' W 075°11'0 0.0
2018-Jun-16 19:00N 39°53' W 075°11'0 0.0
2018-Jun-16 18:30N 39°53' W 075°11'0 0.0
2018-Jun-16 18:00N 39°53' W 075°11'0 0.0
2018-Jun-16 17:31N 39°53' W 075°11'0 0.0
2018-Jun-16 17:00N 39°53' W 075°11'0 0.0
2018-Jun-16 16:30N 39°53' W 075°11'0 0.0
2018-Jun-16 16:01N 39°53' W 075°11'0 0.0
2018-Jun-16 15:31N 39°53' W 075°11'0 0.0
2018-Jun-16 15:01N 39°53' W 075°11'0 0.0
2018-Jun-16 14:30N 39°53' W 075°11'0 0.0
2018-Jun-16 14:01N 39°53' W 075°11'0 0.0
2018-Jun-16 13:30N 39°53' W 075°11'0 0.0
2018-Jun-16 13:00N 39°53' W 075°11'0 0.0
2018-Jun-16 12:30N 39°53' W 075°11'0 0.0
2018-Jun-16 12:00N 39°53' W 075°11'0 0.0
2018-Jun-16 11:30N 39°53' W 075°11'0 0.0
2018-Jun-16 11:00N 39°53' W 075°11'0 0.0
2018-Jun-16 10:30N 39°53' W 075°11'0 0.0
2018-Jun-16 10:00N 39°53' W 075°11'0 0.0
2018-Jun-16 09:30N 39°53' W 075°11'0 0.0
2018-Jun-16 09:00N 39°53' W 075°11'0 0.0
2018-Jun-16 08:30N 39°53' W 075°11'0 0.0
2018-Jun-16 08:00N 39°53' W 075°11'0 0.0
2018-Jun-16 07:30N 39°53' W 075°11'0 0.0
2018-Jun-16 07:00N 39°53' W 075°11'0 0.0
2018-Jun-16 06:30N 39°53' W 075°11'0 0.0
2018-Jun-16 06:00N 39°53' W 075°11'0 0.0
2018-Jun-16 05:30N 39°53' W 075°11'0 0.0
2018-Jun-16 05:00N 39°53' W 075°11'0 0.0
2018-Jun-16 04:31N 39°53' W 075°11'0 0.0
2018-Jun-16 04:01N 39°53' W 075°11'0 0.0
2018-Jun-16 03:30N 39°53' W 075°11'2 4.5
2018-Jun-16 03:00N 39°52' W 075°13'511.0
2018-Jun-16 02:30N 39°51' W 075°20'811.3
2018-Jun-16 01:49N 39°46' W 075°28'411.9
2018-Jun-16 01:30N 39°43' W 075°30'611.1
2018-Jun-16 01:00N 39°38' W 075°34'510.7
2018-Jun-16 00:29N 39°33' W 075°32'510.9
2018-Jun-16 00:00N 39°28' W 075°34'711.4
2018-Jun-15 23:23N 39°22' W 075°28'2 3.6
2018-Jun-15 22:56N 39°23' W 075°29'512.3
2018-Jun-15 22:30N 39°28' W 075°34'612.3
2018-Jun-15 22:00N 39°34' W 075°33'610.9
2018-Jun-15 21:30N 39°39' W 075°33'611.8
2018-Jun-15 21:00N 39°45' W 075°30'510.7
2018-Jun-15 20:30N 39°48' W 075°25'6 9.8
2018-Jun-15 19:56N 39°51' W 075°18'4 9.0
2018-Jun-15 19:31N 39°52' W 075°13'4 8.5
2018-Jun-15 19:01N 39°53' W 075°08'4 8.2
2018-Jun-15 18:30N 39°57' W 075°08'2 3.0
2018-Jun-15 18:00N 39°58' W 075°06'0 0.6
2018-Jun-15 17:31N 39°58' W 075°07'2 4.6
2018-Jun-15 17:01N 39°56' W 075°08'3 6.8
2018-Jun-15 16:30N 39°53' W 075°11'0 0.0
2018-Jun-15 16:01N 39°53' W 075°11'0 0.0
2018-Jun-15 15:30N 39°53' W 075°11'0 0.0
2018-Jun-15 15:01N 39°53' W 075°11'0 0.0
2018-Jun-15 14:31N 39°53' W 075°11'0 0.0
2018-Jun-15 14:00N 39°53' W 075°11'0 0.0
2018-Jun-15 13:31N 39°53' W 075°11'0 0.0
2018-Jun-15 13:00N 39°53' W 075°11'0 0.0
2018-Jun-15 12:30N 39°53' W 075°11'0 0.0
2018-Jun-15 12:00N 39°53' W 075°11'0 0.0
2018-Jun-15 11:30N 39°53' W 075°11'0 0.0
2018-Jun-15 11:00N 39°53' W 075°11'0 0.0
2018-Jun-15 10:30N 39°53' W 075°11'0 0.0
2018-Jun-15 10:00N 39°53' W 075°11'0 0.0
2018-Jun-15 09:30N 39°53' W 075°11'0 0.0
2018-Jun-15 09:00N 39°53' W 075°11'0 0.0
2018-Jun-15 08:30N 39°53' W 075°11'0 0.0
2018-Jun-15 08:00N 39°53' W 075°11'0 0.0
2018-Jun-15 07:30N 39°53' W 075°11'0 0.0
2018-Jun-15 07:00N 39°53' W 075°11'0 0.0
2018-Jun-15 06:30N 39°53' W 075°11'0 0.0
2018-Jun-15 06:00N 39°53' W 075°11'0 0.0
2018-Jun-15 05:30N 39°53' W 075°11'0 0.0
2018-Jun-15 05:00N 39°53' W 075°11'0 0.0
2018-Jun-15 04:30N 39°53' W 075°11'0 0.0
2018-Jun-15 04:00N 39°53' W 075°11'0 0.0
2018-Jun-15 03:30N 39°53' W 075°11'0 0.0
2018-Jun-15 03:00N 39°53' W 075°11'0 0.5
2018-Jun-15 02:30N 39°53' W 075°10'4 7.4
2018-Jun-15 02:01N 39°56' W 075°08'2 4.4
2018-Jun-15 01:30N 39°58' W 075°07'0 0.0
2018-Jun-15 01:00N 39°58' W 075°07'0 0.0
2018-Jun-15 00:30N 39°58' W 075°07'0 0.0
2018-Jun-15 00:00N 39°58' W 075°07'1 2.5
2018-Jun-14 23:30N 39°59' W 075°05'2 3.6
2018-Jun-14 23:00N 39°60' W 075°04'2 3.7
2018-Jun-14 22:30N 39°59' W 075°05'3 6.2
2018-Jun-14 22:00N 39°57' W 075°08'3 6.7
2018-Jun-14 21:30N 39°53' W 075°08'2 3.4
2018-Jun-14 21:00N 39°53' W 075°11'0 0.0
2018-Jun-14 20:30N 39°53' W 075°11'0 0.0
2018-Jun-14 20:00N 39°53' W 075°11'0 0.0
2018-Jun-14 19:30N 39°53' W 075°11'0 0.0
2018-Jun-14 19:00N 39°53' W 075°11'0 0.0
2018-Jun-14 18:30N 39°53' W 075°11'0 0.0
2018-Jun-14 18:00N 39°53' W 075°11'0 0.0
2018-Jun-14 17:30N 39°53' W 075°11'0 0.0
2018-Jun-14 17:00N 39°53' W 075°11'0 0.0
2018-Jun-14 16:30N 39°53' W 075°11'0 0.0
2018-Jun-14 16:00N 39°53' W 075°11'0 0.0
2018-Jun-14 15:31N 39°53' W 075°11'0 0.0
2018-Jun-14 15:01N 39°53' W 075°11'0 0.0
2018-Jun-14 14:31N 39°53' W 075°11'0 0.0
2018-Jun-14 14:01N 39°53' W 075°11'0 0.0
2018-Jun-14 13:30N 39°53' W 075°11'0 0.0
2018-Jun-14 13:00N 39°53' W 075°11'0 0.0
2018-Jun-14 12:30N 39°53' W 075°11'0 0.0
2018-Jun-14 12:00N 39°53' W 075°11'0 0.0
2018-Jun-14 11:30N 39°53' W 075°11'0 0.0
2018-Jun-14 11:00N 39°53' W 075°11'0 0.0
2018-Jun-14 10:30N 39°53' W 075°11'0 0.0
2018-Jun-14 10:00N 39°53' W 075°11'0 0.0
2018-Jun-14 09:30N 39°53' W 075°11'0 0.0
2018-Jun-14 09:00N 39°53' W 075°11'0 0.0
2018-Jun-14 08:30N 39°53' W 075°11'1 1.5
2018-Jun-14 08:00N 39°53' W 075°10'4 8.9
2018-Jun-14 07:30N 39°57' W 075°08'2 4.3
2018-Jun-14 07:00N 39°59' W 075°06'0 0.4
2018-Jun-14 06:30N 39°59' W 075°06'0 0.0
2018-Jun-14 06:00N 39°59' W 075°06'3 6.2
2018-Jun-14 05:30N 39°56' W 075°08'4 8.0
2018-Jun-14 05:00N 39°53' W 075°11'5 9.9
2018-Jun-14 04:30N 39°51' W 075°17'611.2
2018-Jun-14 04:00N 39°49' W 075°24'612.6
2018-Jun-14 03:30N 39°44' W 075°30'715.0
2018-Jun-14 03:00N 39°38' W 075°34'713.1
2018-Jun-14 02:30N 39°31' W 075°33'612.0
2018-Jun-14 02:00N 39°25' W 075°31'713.3
2018-Jun-14 01:30N 39°21' W 075°26'714.4
2018-Jun-14 01:00N 39°15' W 075°20'9 4.6
2018-Jun-13 23:10N 39°08' W 075°13'1 6.2
2018-Jun-13 22:59N 39°09' W 075°14'3 6.4
2018-Jun-13 22:30N 39°11' W 075°17'4 7.5
2018-Jun-13 22:00N 39°15' W 075°19'4 8.6
2018-Jun-13 21:30N 39°18' W 075°23'510.1
2018-Jun-13 21:00N 39°22' W 075°27'510.6
2018-Jun-13 20:30N 39°26' W 075°32'5 9.3
2018-Jun-13 20:00N 39°30' W 075°33'5 9.5
2018-Jun-13 19:30N 39°35' W 075°33'4 8.3
2018-Jun-13 19:00N 39°39' W 075°33'4 8.7
2018-Jun-13 18:30N 39°43' W 075°31'4 7.8
2018-Jun-13 18:00N 39°46' W 075°28'4 6.8
2018-Jun-13 17:29N 39°48' W 075°25'3 5.8
2018-Jun-13 17:00N 39°50' W 075°22'3 5.1
2018-Jun-13 16:30N 39°51' W 075°19'2 4.6
2018-Jun-13 16:00N 39°51' W 075°16'2 3.7
2018-Jun-13 15:30N 39°52' W 075°14'0 0.5
2018-Jun-13 15:00N 39°52' W 075°13'1 2.6
2018-Jun-13 14:30N 39°53' W 075°12'1 2.2
2018-Jun-13 14:00N 39°54' W 075°11'0 0.5
2018-Jun-13 13:30N 39°54' W 075°12'1 1.7
2018-Jun-13 13:01N 39°53' W 075°11'0 0.0
2018-Jun-13 12:30N 39°53' W 075°11'0 0.0
2018-Jun-13 12:00N 39°53' W 075°11'0 0.0
2018-Jun-13 11:30N 39°53' W 075°11'0 0.0
2018-Jun-13 11:00N 39°53' W 075°11'0 0.0
2018-Jun-13 10:30N 39°53' W 075°11'0 0.0
2018-Jun-13 10:01N 39°53' W 075°11'0 0.0
2018-Jun-13 09:30N 39°53' W 075°11'0 0.0
2018-Jun-13 09:00N 39°53' W 075°11'0 0.0
2018-Jun-13 08:30N 39°53' W 075°11'0 0.0
2018-Jun-13 08:01N 39°53' W 075°11'0 0.0
2018-Jun-13 07:31N 39°53' W 075°11'0 0.0
2018-Jun-13 07:00N 39°53' W 075°11'0 0.0
2018-Jun-13 06:30N 39°53' W 075°11'0 0.0
2018-Jun-13 06:00N 39°53' W 075°11'0 0.0
2018-Jun-13 05:30N 39°53' W 075°11'0 0.0
2018-Jun-13 05:01N 39°53' W 075°11'0 0.0
2018-Jun-13 04:30N 39°53' W 075°11'0 0.0
2018-Jun-13 04:01N 39°53' W 075°11'0 0.0
2018-Jun-13 03:30N 39°53' W 075°11'0 0.0
2018-Jun-13 03:00N 39°53' W 075°11'0 0.0
2018-Jun-13 02:30N 39°53' W 075°11'0 0.0
2018-Jun-13 02:00N 39°53' W 075°11'0 0.0
2018-Jun-13 01:30N 39°53' W 075°11'0 0.0
2018-Jun-13 01:00N 39°53' W 075°11'0 0.0
2018-Jun-13 00:31N 39°53' W 075°11'0 0.0
2018-Jun-13 00:01N 39°53' W 075°11'0 0.0
2018-Jun-12 23:30N 39°53' W 075°11'0 0.0
2018-Jun-12 23:00N 39°53' W 075°11'3 5.4
2018-Jun-12 22:30N 39°55' W 075°08'3 6.5
2018-Jun-12 22:00N 39°58' W 075°07'1 1.8
2018-Jun-12 21:30N 39°58' W 075°08'3 6.6
2018-Jun-12 21:00N 39°54' W 075°08'3 6.9
2018-Jun-12 20:30N 39°53' W 075°12'4 8.3
2018-Jun-12 20:01N 39°51' W 075°17'4 8.2
2018-Jun-12 19:31N 39°50' W 075°22'4 8.6
2018-Jun-12 19:01N 39°48' W 075°26'4 8.8
2018-Jun-12 18:31N 39°44' W 075°30'4 9.0
2018-Jun-12 18:01N 39°40' W 075°32'4 8.3
2018-Jun-12 17:31N 39°36' W 075°34'5 9.1
2018-Jun-12 17:01N 39°32' W 075°33'5 9.4
2018-Jun-12 16:30N 39°27' W 075°33'5 9.6
2018-Jun-12 16:00N 39°24' W 075°29'18 6.4
2018-Jun-12 13:09N 39°09' W 075°15'211.6
2018-Jun-12 13:00N 39°11' W 075°16'611.7
2018-Jun-12 12:30N 39°16' W 075°20'611.5
2018-Jun-12 12:00N 39°20' W 075°25'611.5
2018-Jun-12 11:30N 39°24' W 075°30'611.7
2018-Jun-12 11:01N 39°29' W 075°34'612.7
2018-Jun-12 10:30N 39°35' W 075°34'712.9
2018-Jun-12 10:00N 39°42' W 075°31'714.0
2018-Jun-12 09:30N 39°48' W 075°27'613.0
2018-Jun-12 09:00N 39°51' W 075°19'612.8
2018-Jun-12 08:31N 39°53' W 075°11'1 1.5
2018-Jun-12 08:01N 39°53' W 075°11'0 0.0
2018-Jun-12 07:30N 39°53' W 075°11'0 0.0
2018-Jun-12 07:01N 39°53' W 075°11'0 0.0
2018-Jun-12 06:31N 39°53' W 075°11'3 5.3
2018-Jun-12 06:00N 39°55' W 075°08'4 7.9
2018-Jun-12 05:30N 39°58' W 075°06'0 0.4
2018-Jun-12 05:01N 39°59' W 075°06'1 1.7
2018-Jun-12 04:31N 39°58' W 075°07'5 9.6
2018-Jun-12 04:00N 39°53' W 075°08'5 9.2
2018-Jun-12 03:30N 39°52' W 075°14'0 0.4
2018-Jun-12 03:00N 39°52' W 075°14'0 0.1
2018-Jun-12 02:30N 39°52' W 075°14'2 4.4
2018-Jun-12 02:00N 39°53' W 075°11'1 1.3
2018-Jun-12 01:30N 39°53' W 075°11'0 0.0
2018-Jun-12 01:00N 39°53' W 075°11'0 0.0
2018-Jun-12 00:31N 39°53' W 075°11'0 0.0
2018-Jun-12 00:00N 39°53' W 075°11'0 0.0
2018-Jun-11 23:30N 39°53' W 075°11'0 0.0
2018-Jun-11 23:01N 39°53' W 075°11'0 0.0
2018-Jun-11 22:30N 39°53' W 075°11'0 0.0
2018-Jun-11 22:00N 39°53' W 075°11'0 0.0
2018-Jun-11 21:30N 39°53' W 075°11'0 0.0
2018-Jun-11 21:00N 39°53' W 075°11'0 0.0
2018-Jun-11 20:31N 39°53' W 075°11'0 0.0
2018-Jun-11 20:00N 39°53' W 075°11'0 0.0
2018-Jun-11 19:31N 39°53' W 075°11'0 0.0
2018-Jun-11 19:00N 39°53' W 075°11'0 0.0
2018-Jun-11 18:30N 39°53' W 075°11'0 0.0
2018-Jun-11 18:00N 39°53' W 075°11'0 0.0
2018-Jun-11 17:30N 39°53' W 075°11'0 0.0
2018-Jun-11 17:01N 39°53' W 075°11'0 0.0
2018-Jun-11 16:30N 39°53' W 075°11'0 0.0
2018-Jun-11 16:00N 39°53' W 075°11'0 0.0
2018-Jun-11 15:30N 39°53' W 075°11'0 0.0
2018-Jun-11 15:00N 39°53' W 075°11'0 0.0
2018-Jun-11 14:31N 39°53' W 075°11'0 0.0
2018-Jun-11 14:00N 39°53' W 075°11'0 0.0
2018-Jun-11 13:30N 39°53' W 075°11'0 0.0
2018-Jun-11 13:00N 39°53' W 075°11'1 1.6
2018-Jun-11 12:30N 39°54' W 075°12'1 1.6
2018-Jun-11 11:59N 39°53' W 075°11'0 0.0
2018-Jun-11 11:30N 39°53' W 075°11'0 0.0
2018-Jun-11 11:00N 39°53' W 075°11'0 0.0
2018-Jun-11 10:30N 39°53' W 075°11'0 0.0
2018-Jun-11 10:01N 39°53' W 075°11'0 0.0
2018-Jun-11 09:30N 39°53' W 075°11'0 0.0
2018-Jun-11 09:01N 39°53' W 075°11'0 0.0
2018-Jun-11 08:30N 39°53' W 075°11'0 0.0
2018-Jun-11 08:01N 39°53' W 075°11'0 0.0
2018-Jun-11 07:30N 39°53' W 075°11'0 0.0
2018-Jun-11 07:01N 39°53' W 075°11'0 0.0
2018-Jun-11 06:30N 39°53' W 075°11'0 0.6
2018-Jun-11 06:00N 39°53' W 075°10'4 8.4
2018-Jun-11 05:31N 39°57' W 075°08'2 5.0
2018-Jun-11 05:00N 39°59' W 075°06'0 0.5
2018-Jun-11 04:30N 39°58' W 075°06'3 5.4
2018-Jun-11 04:01N 39°56' W 075°08'3 5.3
2018-Jun-11 03:31N 39°54' W 075°08'2 3.4
2018-Jun-11 02:56N 39°53' W 075°11'0 0.0
2018-Jun-11 02:27N 39°53' W 075°11'0 0.0
2018-Jun-11 01:55N 39°53' W 075°11'0 0.0
2018-Jun-11 01:20N 39°53' W 075°11'0 0.0
2018-Jun-11 00:59N 39°53' W 075°11'0 0.0
2018-Jun-11 00:25N 39°53' W 075°11'0 0.0
2018-Jun-10 23:55N 39°53' W 075°11'0 0.0
2018-Jun-10 23:25N 39°53' W 075°11'0 0.0
2018-Jun-10 22:53N 39°53' W 075°11'0 0.0
2018-Jun-10 22:27N 39°53' W 075°11'0 0.0
2018-Jun-10 21:50N 39°53' W 075°11'0 0.0
2018-Jun-10 21:30N 39°53' W 075°11'0 0.0
2018-Jun-10 20:51N 39°53' W 075°11'0 0.0
2018-Jun-10 20:26N 39°53' W 075°11'0 0.0
2018-Jun-10 19:59N 39°53' W 075°11'0 0.0
2018-Jun-10 19:25N 39°53' W 075°11'0 0.0
2018-Jun-10 18:58N 39°53' W 075°11'0 0.0
2018-Jun-10 18:24N 39°53' W 075°11'0 0.0
2018-Jun-10 17:58N 39°53' W 075°11'0 0.0
2018-Jun-10 17:28N 39°53' W 075°11'0 0.0
2018-Jun-10 16:56N 39°53' W 075°11'0 0.0
2018-Jun-10 16:23N 39°53' W 075°11'0 0.0
2018-Jun-10 15:54N 39°53' W 075°11'0 0.0
2018-Jun-10 15:28N 39°53' W 075°11'0 0.0
2018-Jun-10 14:56N 39°53' W 075°11'0 0.0
2018-Jun-10 14:28N 39°53' W 075°11'0 0.0
2018-Jun-10 13:29N 39°53' W 075°11'0 0.0
2018-Jun-10 12:56N 39°53' W 075°11'0 0.0
2018-Jun-10 12:30N 39°53' W 075°11'0 0.0
2018-Jun-10 11:53N 39°53' W 075°11'0 0.0
2018-Jun-10 11:26N 39°53' W 075°11'0 0.0
2018-Jun-10 10:59N 39°53' W 075°11'0 0.0
2018-Jun-10 10:20N 39°53' W 075°11'0 0.0
2018-Jun-10 09:56N 39°53' W 075°11'0 0.0
2018-Jun-10 09:25N 39°53' W 075°11'0 0.0
2018-Jun-10 08:53N 39°53' W 075°11'0 0.0
2018-Jun-10 08:29N 39°53' W 075°11'0 0.0
2018-Jun-10 07:58N 39°53' W 075°11'0 0.0
2018-Jun-10 07:25N 39°53' W 075°11'0 0.0
2018-Jun-10 06:52N 39°53' W 075°11'0 0.0
2018-Jun-10 06:26N 39°53' W 075°11'0 0.0
2018-Jun-10 05:50N 39°53' W 075°11'0 0.0
2018-Jun-10 05:27N 39°53' W 075°11'0 0.0
2018-Jun-10 04:52N 39°53' W 075°11'0 0.0
2018-Jun-10 04:30N 39°53' W 075°11'0 0.0
2018-Jun-10 03:56N 39°53' W 075°11'0 0.0
2018-Jun-10 03:24N 39°53' W 075°11'0 0.0
2018-Jun-10 03:00N 39°53' W 075°11'0 0.0
2018-Jun-10 02:22N 39°53' W 075°11'0 0.0
2018-Jun-10 01:53N 39°53' W 075°11'0 0.0
2018-Jun-10 01:28N 39°53' W 075°11'0 0.0
2018-Jun-10 00:58N 39°53' W 075°11'0 0.0
2018-Jun-10 00:25N 39°53' W 075°11'0 0.0
2018-Jun-10 00:00N 39°53' W 075°11'2 3.4
2018-Jun-09 23:28N 39°53' W 075°08'4 6.8
2018-Jun-09 22:52N 39°58' W 075°08'3 6.2
2018-Jun-09 22:24N 39°59' W 075°04'0 0.2
2018-Jun-09 22:00N 39°59' W 075°04'0 0.0
2018-Jun-09 21:25N 39°59' W 075°04'0 0.0
2018-Jun-09 21:00N 39°59' W 075°04'5 9.0
2018-Jun-09 20:27N 39°54' W 075°08'2 3.8
2018-Jun-09 19:48N 39°53' W 075°11'0 0.0
2018-Jun-09 19:24N 39°53' W 075°11'0 0.0
2018-Jun-09 18:50N 39°53' W 075°11'0 0.0
2018-Jun-09 18:27N 39°53' W 075°11'0 0.0
2018-Jun-09 17:58N 39°53' W 075°11'0 0.0
2018-Jun-09 17:26N 39°53' W 075°11'0 0.0
2018-Jun-09 16:50N 39°53' W 075°11'0 0.0
2018-Jun-09 16:26N 39°53' W 075°11'0 0.0
2018-Jun-09 15:57N 39°53' W 075°11'0 0.0
2018-Jun-09 14:55N 39°53' W 075°11'0 0.0
2018-Jun-09 14:28N 39°53' W 075°11'0 0.0
2018-Jun-09 13:57N 39°53' W 075°11'0 0.0
2018-Jun-09 13:30N 39°53' W 075°11'0 0.0
2018-Jun-09 12:53N 39°53' W 075°11'0 0.0
2018-Jun-09 12:23N 39°53' W 075°11'0 0.0
2018-Jun-09 11:59N 39°53' W 075°11'0 0.0
2018-Jun-09 11:29N 39°53' W 075°11'0 0.0
2018-Jun-09 11:00N 39°53' W 075°11'0 0.0
2018-Jun-09 10:29N 39°53' W 075°11'3 4.5
2018-Jun-09 09:54N 39°55' W 075°08'2 4.4
2018-Jun-09 09:27N 39°57' W 075°08'612.0
2018-Jun-09 08:57N 40°01' W 075°03'4 8.7
2018-Jun-09 08:30N 40°03' W 074°58'5 9.6
2018-Jun-09 07:59N 40°05' W 074°52'4 1.9
2018-Jun-09 06:00N 40°08' W 074°49'4 8.9
2018-Jun-09 05:30N 40°05' W 074°53'510.8
2018-Jun-09 05:00N 40°02' W 074°60'  

Dump ship's entire track history